Time;durP1;ratioP1;P1;durP2;ratioP2;P2;SDS_P1;SDS_P2;PMS_P1;PMS_P2;Temp;Humidity;BMP_temperature;BMP_pressure;BME280_temperature;BME280_humidity;BME280_pressure;Samples;Min_cycle;Max_cycle;Signal;HPM_P1;HPM_P2
2022/05/28 00:00:22;;;;;;;19.52;9.98;;;;;;;;;;5050886;28;20025;-76
2022/05/28 00:02:49;;;;;;;12.07;9.38;;;;;;;;;;5050784;28;20388;-78
2022/05/28 00:05:15;;;;;;;15.05;8.73;;;;;;;;;;5052121;28;20086;-80
2022/05/28 00:07:41;;;;;;;14.50;9.18;;;;;;;;;;5052268;28;20020;-78
2022/05/28 00:10:11;;;;;;;20.27;10.43;;;;;;;;;;5050638;28;20017;-78
2022/05/28 00:12:37;;;;;;;13.98;9.80;;;;;;;;;;5052024;28;20025;-78
2022/05/28 00:15:05;;;;;;;13.18;10.40;;;;;;;;;;5050072;28;20032;-76
2022/05/28 00:17:31;;;;;;;13.60;9.63;;;;;;;;;;5051207;28;20033;-77
2022/05/28 00:19:56;;;;;;;13.82;9.98;;;563.60;2432.00;;;;;;5052571;28;20025;-77
2022/05/28 00:22:22;;;;;;;18.52;9.40;;;563.40;2432.00;;;;;;5052293;28;20083;-78
2022/05/28 00:24:48;;;;;;;20.50;10.20;;;563.40;2432.00;;;;;;5050944;28;20028;-76
2022/05/28 00:27:13;;;;;;;15.45;10.40;;;563.50;2432.00;;;;;;5051167;28;20388;-77
2022/05/28 00:29:39;;;;;;;21.13;9.45;;;563.50;2432.00;;;;;;5050926;28;20053;-80
2022/05/28 00:32:06;;;;;;;19.52;10.45;;;563.60;2432.00;;;;;;5051406;28;20055;-79
2022/05/28 00:34:32;;;;;;;16.88;10.93;;;563.70;2432.00;;;;;;5050230;28;20052;-80
2022/05/28 00:36:57;;;;;;;20.13;8.75;;;563.80;2432.00;;;;;;5051371;28;20450;-78
2022/05/28 00:39:23;;;;;;;17.15;9.38;;;563.90;2432.00;;;;;;5050025;28;20035;-78
2022/05/28 00:41:49;;;;;;;11.82;8.93;;;564.00;2432.00;;;;;;5049972;28;20388;-78
2022/05/28 00:44:15;;;;;;;15.48;8.43;;;564.00;2432.00;;;;;;5049927;28;20036;-77
2022/05/28 00:46:43;;;;;;;20.58;9.15;;;564.00;2432.00;;;;;;5049912;28;20476;-76
2022/05/28 00:49:14;;;;;;;11.77;7.95;;;564.10;2432.00;;;;;;5049927;28;20025;-80
2022/05/28 00:51:45;;;;;;;13.95;9.50;;;564.00;2432.00;;;;;;5051146;28;20032;-78
2022/05/28 00:54:12;;;;;;;18.77;7.80;;;564.00;2432.00;;;;;;5049853;28;20025;-78
2022/05/28 00:56:38;;;;;;;15.32;7.05;;;564.00;2432.00;;;;;;5049988;28;20082;-78
2022/05/28 00:59:04;;;;;;;12.48;6.68;;;564.00;2432.00;;;;;;5049977;28;20032;-78
2022/05/28 01:01:33;;;;;;;17.92;6.82;;;563.90;2432.00;;;;;;5049979;28;20029;-78
2022/05/28 01:04:34;;;;;;;18.00;7.78;;;563.90;2432.00;;;;;;5050033;28;20083;-78
2022/05/28 01:07:11;;;;;;;13.77;8.73;;;563.90;2432.00;;;;;;5049219;28;20481;-78
2022/05/28 01:09:49;;;;;;;14.05;7.65;;;563.90;2432.00;;;;;;5055240;28;20033;-78
2022/05/28 01:12:22;;;;;;;15.18;7.35;;;563.80;2432.00;;;;;;5054061;28;20025;-78
2022/05/28 01:14:55;;;;;;;;;;;563.70;2432.00;;;;;;5054452;28;20494;-80
2022/05/28 01:17:44;;;;;;;14.13;7.50;;;563.50;2432.00;;;;;;5055351;28;20012;-78
2022/05/28 01:20:20;;;;;;;16.63;6.85;;;563.40;2432.00;;;;;;5054130;28;20021;-78
2022/05/28 01:22:52;;;;;;;14.65;6.40;;;563.40;2432.00;;;;;;5054223;28;20102;-80
2022/05/28 01:25:36;;;;;;;13.55;6.97;;;563.40;2432.00;;;;;;5054347;28;20021;-79
2022/05/28 01:28:06;;;;;;;17.65;6.40;;;563.20;2432.00;;;;;;5053989;28;20415;-78
2022/05/28 01:30:32;;;;;;;12.05;6.78;;;563.20;2432.00;;;;;;5054128;28;20029;-79
2022/05/28 01:33:01;;;;;;;14.07;7.13;;;538.50;2406.40;;;;;;5053909;28;20029;-79
2022/05/28 01:35:29;;;;;;;17.52;8.00;;;538.50;2406.40;;;;;;5054064;28;20075;-80
2022/05/28 01:37:57;;;;;;;14.55;8.40;;;563.20;2432.00;;;;;;5054117;28;20033;-79
2022/05/28 01:40:24;;;;;;;14.95;7.90;;;563.20;2432.00;;;;;;5054348;28;20096;-84
2022/05/28 01:42:54;;;;;;;18.10;9.88;;;563.30;2432.00;;;;;;5055446;28;20032;-78
2022/05/28 01:45:25;;;;;;;17.23;8.93;;;563.30;2432.00;;;;;;5053981;28;20468;-80
2022/05/28 01:47:53;;;;;;;16.30;9.20;;;563.20;2432.00;;;;;;5053756;28;20032;-78
2022/05/28 01:50:22;;;;;;;17.27;7.63;;;538.40;2406.40;;;;;;5053813;28;20473;-78
2022/05/28 01:52:49;;;;;;;17.30;8.65;;;538.30;2406.40;;;;;;5053722;28;20083;-80
2022/05/28 01:55:17;;;;;;;12.93;8.30;;;538.40;2406.40;;;;;;5053614;28;20692;-78
2022/05/28 01:57:43;;;;;;;17.23;8.00;;;538.30;2406.40;;;;;;5054331;28;20033;-78
2022/05/28 02:00:09;;;;;;;16.63;12.02;;;538.40;2406.40;;;;;;5052682;28;20033;-78
2022/05/28 02:02:35;;;;;;;14.02;8.20;;;538.40;2406.40;;;;;;5050082;28;20022;-84
2022/05/28 02:05:02;;;;;;;25.60;9.68;;;538.30;2406.40;;;;;;5051825;28;20116;-82
2022/05/28 02:07:27;;;;;;;24.25;9.82;;;538.30;2406.40;;;;;;5052240;28;20025;-78
2022/05/28 02:10:15;;;;;;;15.68;8.10;;;538.30;2406.40;;;;;;5052516;28;20017;-78
2022/05/28 02:12:56;;;;;;;17.02;9.18;;;538.10;2406.40;;;;;;5053056;28;20067;-77
2022/05/28 02:15:44;;;;;;;17.48;11.90;;;538.10;2406.40;;;;;;5049748;28;20484;-79
2022/05/28 02:18:28;;;;;;;18.15;8.02;;;538.10;2406.40;;;;;;5058256;28;20030;-79
2022/05/28 02:21:00;;;;;;;24.25;9.40;;;537.80;2406.40;;;;;;5052764;28;20495;-78
2022/05/28 02:23:49;;;;;;;17.30;10.77;;;512.90;2380.80;;;;;;5049984;28;20025;-79
2022/05/28 02:26:35;;;;;;;17.70;9.80;;;512.70;2380.80;;;;;;5051727;28;20550;-78
2022/05/28 02:29:01;;;;;;;17.88;10.95;;;512.90;2380.80;;;;;;5045648;28;20131;-78
2022/05/28 02:31:30;;;;;;;24.90;12.00;;;512.60;2380.80;;;;;;5052284;28;20464;-78
2022/05/28 02:33:56;;;;;;;31.88;11.93;;;512.60;2380.80;;;;;;5053301;28;20044;-78
2022/05/28 02:36:22;;;;;;;23.15;11.10;;;512.70;2380.80;;;;;;5051721;28;20128;-77
2022/05/28 02:38:48;;;;;;;20.45;11.57;;;512.70;2380.80;;;;;;5052099;28;20119;-79
2022/05/28 02:41:14;;;;;;;26.38;11.00;;;512.70;2380.80;;;;;;5052189;28;20476;-78
2022/05/28 02:43:40;;;;;;;22.08;11.45;;;512.70;2380.80;;;;;;5053136;28;20021;-78
2022/05/28 02:46:07;;;;;;;17.88;9.90;;;512.80;2380.80;;;;;;5046844;28;20060;-77
2022/05/28 02:48:34;;;;;;;16.85;9.25;;;512.80;2380.80;;;;;;5040307;28;20033;-78
2022/05/28 02:51:09;;;;;;;13.52;8.20;;;512.70;2380.80;;;;;;5051086;28;20024;-78
2022/05/28 02:53:35;;;;;;;16.70;9.48;;;512.60;2380.80;;;;;;5051504;28;20041;-79
2022/05/28 02:56:01;;;;;;;18.17;8.90;;;512.50;2380.80;;;;;;5048748;28;20475;-75
2022/05/28 02:58:27;;;;;;;16.65;8.82;;;512.50;2380.80;;;;;;5052050;28;20024;-76
2022/05/28 03:00:54;;;;;;;14.95;7.93;;;;;;;;;;5051223;28;20025;-77
2022/05/28 03:03:20;;;;;;;17.67;8.25;;;;;;;;;;5051516;28;20024;-76
2022/05/28 03:05:47;;;;;;;19.75;8.45;;;512.30;2380.80;;;;;;5048543;28;20029;-77
2022/05/28 03:08:13;;;;;;;18.00;8.40;;;512.00;2380.80;;;;;;5052640;28;20064;-77
2022/05/28 03:10:39;;;;;;;14.40;6.85;;;487.20;2380.80;;;;;;5051685;28;20056;-76
2022/05/28 03:13:06;;;;;;;12.35;7.35;;;487.00;2380.80;;;;;;5048921;28;20065;-76
2022/05/28 03:15:32;;;;;;;14.45;8.10;;;487.00;2380.80;;;;;;5050678;28;20060;-78
2022/05/28 03:17:59;;;;;;;19.48;8.90;;;487.00;2380.80;;;;;;5051686;28;20027;-78
2022/05/28 03:20:26;;;;;;;11.02;6.88;;;487.00;2380.80;;;;;;5051921;28;20052;-77
2022/05/28 03:22:52;;;;;;;18.17;7.80;;;486.80;2380.80;;;;;;5051392;28;20393;-79
2022/05/28 03:25:18;;;;;;;19.52;9.77;;;;;;;;;;5053135;28;20491;-76
2022/05/28 03:27:44;;;;;;;22.33;9.35;;;486.80;2380.80;;;;;;5051207;28;20045;-82
2022/05/28 03:30:11;;;;;;;20.20;10.50;;;486.50;2380.80;;;;;;5051054;28;20438;-83
2022/05/28 03:32:37;;;;;;;17.40;9.80;;;461.70;2380.80;;;;;;5052156;28;20051;-80
2022/05/28 03:35:03;;;;;;;13.55;8.73;;;461.60;2380.80;;;;;;5049974;28;20041;-80
2022/05/28 03:37:29;;;;;;;12.82;9.32;;;;;;;;;;5050096;28;20041;-80
2022/05/28 03:39:55;;;;;;;17.75;10.05;;;;;;;;;;5049972;28;20036;-79
2022/05/28 03:42:21;;;;;;;18.45;9.88;;;;;;;;;;5050656;28;20032;-80
2022/05/28 03:44:47;;;;;;;17.17;9.45;;;;;;;;;;5052237;28;20384;-80
2022/05/28 03:47:13;;;;;;;16.15;9.23;;;;;;;;;;5051298;28;20472;-80
2022/05/28 03:49:40;;;;;;;14.95;9.63;;;;;;;;;;5051372;28;20075;-80
2022/05/28 03:52:06;;;;;;;11.65;8.60;;;;;;;;;;5051415;28;20025;-80
2022/05/28 03:54:32;;;;;;;15.98;8.88;;;;;;;;;;5052833;28;20024;-79
2022/05/28 03:57:00;;;;;;;16.48;8.90;;;;;;;;;;5051673;28;20467;-80
2022/05/28 03:59:26;;;;;;;12.18;8.60;;;;;;;;;;5051736;28;20476;-80
2022/05/28 04:01:53;;;;;;;20.85;9.23;;;;;;;;;;5051529;28;20357;-80
2022/05/28 04:04:20;;;;;;;17.05;8.73;;;;;;;;;;5051591;28;20494;-81
2022/05/28 04:06:46;;;;;;;16.23;9.55;;;;;;;;;;5051581;28;20068;-83
2022/05/28 04:09:12;;;;;;;16.40;9.18;;;;;;;;;;5051720;28;20021;-83
2022/05/28 04:11:38;;;;;;;17.67;8.90;;;;;;;;;;5052775;28;20017;-82
2022/05/28 04:14:05;;;;;;;13.05;8.80;;;;;;;;;;5051473;28;20059;-82
2022/05/28 04:16:32;;;;;;;16.23;8.48;;;;;;;;;;5051137;28;20033;-81
2022/05/28 04:18:58;;;;;;;16.25;8.05;;;;;;;;;;5051055;28;20021;-79
2022/05/28 04:21:24;;;;;;;9.95;7.18;;;;;;;;;;5051123;28;20369;-80
2022/05/28 04:23:50;;;;;;;17.08;8.88;;;;;;;;;;5052427;28;20025;-80
2022/05/28 04:26:16;;;;;;;19.35;11.98;;;;;;;;;;5051215;28;20025;-79
2022/05/28 04:28:42;;;;;;;14.07;8.07;;;;;;;;;;5050932;28;20488;-80
2022/05/28 04:31:08;;;;;;;18.50;8.73;;;;;;;;;;5051123;28;20475;-81
2022/05/28 04:33:35;;;;;;;21.98;9.82;;;;;;;;;;5051299;28;20049;-82
2022/05/28 04:36:01;;;;;;;16.20;8.40;;;;;;;;;;5052143;28;20029;-81
2022/05/28 04:38:27;;;;;;;17.45;9.40;;;;;;;;;;5050952;28;20056;-82
2022/05/28 04:40:54;;;;;;;15.57;7.43;;;;;;;;;;5050854;28;20033;-81
2022/05/28 04:43:20;;;;;;;13.25;7.32;;;;;;;;;;5051012;28;20053;-82
2022/05/28 04:45:46;;;;;;;12.32;7.03;;;;;;;;;;5050967;28;20025;-81
2022/05/28 04:48:13;;;;;;;11.75;6.13;;;;;;;;;;5050944;28;20017;-82
2022/05/28 04:50:39;;;;;;;12.85;7.88;;;;;;;;;;5051013;28;20036;-81
2022/05/28 04:53:05;;;;;;;14.15;7.18;;;;;;;;;;5050963;28;20021;-81
2022/05/28 04:55:31;;;;;;;9.25;5.43;;;;;;;;;;5050727;28;20067;-83
2022/05/28 04:57:57;;;;;;;13.05;6.32;;;;;;;;;;5051849;28;20021;-81
2022/05/28 05:00:25;;;;;;;11.23;6.28;;;;;;;;;;5050933;28;20074;-81
2022/05/28 05:02:51;;;;;;;15.27;7.25;;;;;;;;;;5050808;28;20029;-81
2022/05/28 05:05:17;;;;;;;13.25;5.70;;;;;;;;;;5050744;28;20170;-82
2022/05/28 05:07:43;;;;;;;19.27;7.35;;;;;;;;;;5050708;28;20392;-80
2022/05/28 05:10:10;;;;;;;7.32;5.32;;;;;;;;;;5050776;28;20111;-80
2022/05/28 05:12:36;;;;;;;14.13;6.22;;;;;;;;;;5050468;28;20033;-79
2022/05/28 05:15:03;;;;;;;7.80;5.63;;;;;;;;;;5050498;28;20032;-80
2022/05/28 05:17:29;;;;;;;16.45;6.30;;;;;;;;;;5050497;28;20037;-81
2022/05/28 05:19:55;;;;;;;12.40;7.50;;;;;;;;;;5050401;28;20022;-79
2022/05/28 05:22:21;;;;;;;21.23;8.18;;;;;;;;;;5050327;28;20492;-79
2022/05/28 05:24:47;;;;;;;8.32;7.45;;;;;;;;;;5050410;28;20021;-78
2022/05/28 05:27:13;;;;;;;17.58;8.52;;;;;;;;;;5050189;28;20021;-79
2022/05/28 05:29:40;;;;;;;19.90;8.10;;;;;;;;;;5051549;28;20911;-79
2022/05/28 05:32:06;;;;;;;22.65;8.32;;;;;;;;;;5050221;28;20108;-79
2022/05/28 05:34:33;;;;;;;15.00;8.98;;;;;;;;;;5050027;28;20021;-79
2022/05/28 05:36:59;;;;;;;14.43;10.07;;;;;;;;;;5051375;28;20060;-79
2022/05/28 05:39:25;;;;;;;20.35;11.45;;;;;;;;;;5050061;28;20021;-78
2022/05/28 05:41:51;;;;;;;11.68;9.93;;;;;;;;;;5051060;28;20112;-78
2022/05/28 05:44:17;;;;;;;14.75;11.50;;;;;;;;;;5049813;28;20017;-78
2022/05/28 05:46:43;;;;;;;13.10;10.40;;;563.20;2432.00;;;;;;5049950;28;20428;-78
2022/05/28 05:49:10;;;;;;;19.92;10.82;;;538.20;2406.40;;;;;;5049940;28;20029;-78
2022/05/28 05:51:41;;;;;;;15.77;11.50;;;538.40;2406.40;;;;;;5051072;28;20472;-78
2022/05/28 05:54:07;;;;;;;18.98;12.15;;;563.70;2432.00;;;;;;5051955;28;20039;-79
2022/05/28 05:56:33;;;;;;;22.25;13.07;;;563.90;2432.00;;;;;;5054294;28;20128;-79
2022/05/28 05:58:59;;;;;;;17.92;13.32;;;;;;;;;;5053543;28;20082;-79
2022/05/28 06:01:26;;;;;;;21.77;13.30;;;589.00;2432.00;;;;;;5053390;28;20032;-79
2022/05/28 06:03:52;;;;;;;16.13;11.05;;;;;;;;;;5053552;28;20154;-79
2022/05/28 06:06:18;;;;;;;15.38;11.38;;;;;;;;;;5053669;28;20025;-80
2022/05/28 06:08:45;;;;;;;21.10;12.18;;;;;;;;;;5053557;28;20017;-80
2022/05/28 06:11:11;;;;;;;17.52;10.80;;;;;;;;;;5053597;28;20107;-78
2022/05/28 06:13:37;;;;;;;19.15;10.50;;;;;;;;;;5053356;28;20021;-79
2022/05/28 06:16:04;;;;;;;18.55;10.25;;;;;;;;;;5053185;28;20041;-79
2022/05/28 06:18:30;;;;;;;16.88;11.40;;;;;;;;;;5053336;28;20021;-78
2022/05/28 06:20:57;;;;;;;26.75;13.32;;;;;;;;;;5054061;28;20043;-78
2022/05/28 06:23:23;;;;;;;15.35;11.15;;;;;;;;;;5053012;28;20480;-77
2022/05/28 06:25:49;;;;;;;22.50;11.32;;;;;;;;;;5053197;28;20071;-79
2022/05/28 06:28:15;;;;;;;18.10;10.25;;;;;;;;;;5052522;28;20044;-78
2022/05/28 06:30:43;;;;;;;15.60;12.18;;;;;;;;;;5053841;28;20502;-79
2022/05/28 06:33:09;;;;;;;10.38;6.90;;;;;;;;;;5052537;28;20029;-79
2022/05/28 06:35:35;;;;;;;13.15;10.43;;;;;;;;;;5052345;28;20522;-78
2022/05/28 06:38:02;;;;;;;12.73;8.95;;;;;;;;;;5052630;28;20025;-78
2022/05/28 06:40:28;;;;;;;9.75;5.57;;;538.30;2406.40;;;;;;5052794;28;20052;-78
2022/05/28 06:42:57;;;;;;;14.25;8.00;;;;;;;;;;5052704;28;20025;-79
2022/05/28 06:45:24;;;;;;;14.05;8.15;;;538.10;2406.40;;;;;;5051850;28;20053;-78
2022/05/28 06:47:50;;;;;;;13.32;7.00;;;538.00;2406.40;;;;;;5053028;28;20021;-79
2022/05/28 06:53:03;;;;;;;15.95;8.02;;;537.80;2406.40;;;;;;5053140;28;20036;-80
2022/05/28 06:55:29;;;;;;;15.80;7.28;;;537.70;2406.40;;;;;;5051738;28;20028;-82
2022/05/28 06:57:55;;;;;;;10.50;8.45;;;512.90;2380.80;;;;;;5051532;28;20033;-79
2022/05/28 07:00:21;;;;;;;8.10;6.00;;;537.80;2406.40;;;;;;5051906;28;20150;-79
2022/05/28 07:02:47;;;;;;;18.98;8.93;;;537.70;2406.40;;;;;;5052100;28;20444;-78
2022/05/28 07:05:14;;;;;;;19.90;11.02;;;538.00;2406.40;;;;;;5050123;28;20028;-79
2022/05/28 07:07:41;;;;;;;11.73;8.60;;;538.10;2406.40;;;;;;5050873;28;20112;-78
2022/05/28 07:10:08;;;;;;;15.18;8.95;;;538.30;2406.40;;;;;;5051784;28;20025;-79
2022/05/28 07:12:34;;;;;;;21.95;9.30;;;538.30;2406.40;;;;;;5050822;28;20116;-77
2022/05/28 07:15:00;;;;;;;15.05;12.25;;;537.90;2406.40;;;;;;5050466;28;20095;-79
2022/05/28 07:17:26;;;;;;;17.30;10.02;;;563.30;2432.00;;;;;;5050378;28;20037;-78
2022/05/28 07:19:51;;;;;;;14.45;8.85;;;538.50;2406.40;;;;;;5050992;28;20025;-77
2022/05/28 07:22:17;;;;;;;11.70;8.52;;;538.40;2406.40;;;;;;5031036;28;20495;-79
2022/05/28 07:24:43;;;;;;;14.60;11.82;;;538.10;2406.40;;;;;;5031898;28;20077;-78
2022/05/28 07:27:11;;;;;;;15.13;11.48;;;537.80;2406.40;;;;;;5032960;28;20500;-79
2022/05/28 07:29:38;;;;;;;16.55;10.90;;;538.20;2406.40;;;;;;5041357;28;20049;-79
2022/05/28 07:32:04;;;;;;;15.40;10.00;;;538.10;2406.40;;;;;;5084523;28;20029;-78
2022/05/28 07:34:30;;;;;;;14.75;12.13;;;537.90;2406.40;;;;;;5052264;28;20099;-78
2022/05/28 07:36:55;;;;;;;12.25;8.43;;;538.20;2406.40;;;;;;5050830;28;20603;-77
2022/05/28 07:39:21;;;;;;;14.18;10.63;;;537.60;2406.40;;;;;;5051032;28;20025;-78
2022/05/28 07:41:48;;;;;;;14.15;11.02;;;537.70;2406.40;;;;;;5050893;28;20056;-78
2022/05/28 07:44:14;;;;;;;17.35;12.10;;;537.90;2406.40;;;;;;5051009;28;20052;-79
2022/05/28 07:46:40;;;;;;;24.30;13.27;;;538.00;2406.40;;;;;;5051569;28;20563;-77
2022/05/28 07:49:07;;;;;;;18.52;13.32;;;538.40;2406.40;;;;;;5051771;28;20096;-78
2022/05/28 07:51:34;;;;;;;17.58;14.52;;;538.50;2406.40;;;;;;5050738;28;20995;-77
2022/05/28 07:54:00;;;;;;;11.65;8.68;;;563.30;2432.00;;;;;;5050712;28;20033;-78
2022/05/28 07:56:26;;;;;;;15.77;10.43;;;538.50;2406.40;;;;;;5051000;28;20106;-79
2022/05/28 07:58:54;;;;;;;12.88;9.18;;;563.20;2432.00;;;;;;5051962;28;20464;-77
2022/05/28 08:01:23;;;;;;;16.27;10.93;;;563.20;2432.00;;;;;;5050602;28;20024;-79
2022/05/28 08:03:49;;;;;;;17.13;10.38;;;563.60;2432.00;;;;;;5050493;28;20448;-78
2022/05/28 08:06:15;;;;;;;21.85;9.25;;;563.40;2432.00;;;;;;5050690;28;20068;-76
2022/05/28 08:08:41;;;;;;;10.30;6.80;;;538.50;2406.40;;;;;;5050498;28;20123;-78
2022/05/28 08:11:08;;;;;;;7.50;4.97;;;563.60;2432.00;;;;;;5050465;28;20121;-78
2022/05/28 08:13:35;;;;;;;9.73;8.07;;;538.40;2406.40;;;;;;5050292;28;20027;-79
2022/05/28 08:16:01;;;;;;;9.23;7.70;;;538.30;2406.40;;;;;;5051094;28;20079;-77
2022/05/28 08:18:27;;;;;;;14.60;7.45;;;538.00;2406.40;;;;;;5049385;28;20045;-76
2022/05/28 08:23:40;;;;;;;12.00;9.07;;;537.70;2406.40;;;;;;5031706;28;20029;-78
2022/05/28 08:26:08;;;;;;;11.35;9.15;;;537.80;2406.40;;;;;;5031602;28;20117;-79
2022/05/28 08:28:36;;;;;;;15.10;11.85;;;537.60;2406.40;;;;;;5029992;28;20071;-77
2022/05/28 08:31:02;;;;;;;11.82;9.98;;;537.90;2406.40;;;;;;5031765;28;20026;-78
2022/05/28 08:33:28;;;;;;;14.75;12.05;;;512.80;2380.80;;;;;;5030374;28;20025;-77
2022/05/28 08:35:55;;;;;;;14.43;12.93;;;512.60;2380.80;;;;;;5031558;28;20021;-78
2022/05/28 08:38:23;;;;;;;22.65;12.18;;;537.80;2406.40;;;;;;5031623;28;20077;-78
2022/05/28 08:40:55;;;;;;;20.35;14.23;;;538.00;2406.40;;;;;;5030095;28;20029;-77
2022/05/28 08:43:26;;;;;;;13.95;12.38;;;537.90;2406.40;;;;;;5048523;28;20032;-78
2022/05/28 08:45:52;;;;;;;19.08;14.82;;;538.30;2406.40;;;;;;5046778;28;20029;-77
2022/05/28 08:48:26;;;;;;;16.13;12.10;;;538.40;2406.40;;;;;;5048869;28;20154;-77
2022/05/28 08:51:00;;;;;;;22.52;14.77;;;538.10;2406.40;;;;;;5050188;28;20476;-79
2022/05/28 08:53:35;;;;;;;13.43;11.00;;;538.50;2406.40;;;;;;5048984;28;20381;-78
2022/05/28 08:56:02;;;;;;;17.50;14.38;;;538.00;2406.40;;;;;;5048761;28;20068;-76
2022/05/28 08:58:30;;;;;;;15.98;14.02;;;538.10;2406.40;;;;;;5084324;28;20033;-76
2022/05/28 09:01:20;;;;;;;15.80;12.30;;;538.50;2406.40;;;;;;5050829;28;20556;-77
2022/05/28 09:03:57;;;;;;;13.75;12.35;;;538.20;2406.40;;;;;;5063108;28;20022;-77
2022/05/28 09:06:24;;;;;;;15.98;12.57;;;538.40;2406.40;;;;;;5048088;28;20029;-78
2022/05/28 09:08:56;;;;;;;13.20;8.73;;;538.00;2406.40;;;;;;5051246;28;20548;-77
2022/05/28 09:11:28;;;;;;;23.67;15.77;;;537.80;2406.40;;;;;;5049812;28;20392;-78
2022/05/28 09:13:55;;;;;;;26.42;16.83;;;538.50;2406.40;;;;;;5049614;28;20495;-77
2022/05/28 09:16:28;;;;;;;17.33;15.63;;;563.30;2432.00;;;;;;5050585;28;20484;-77
2022/05/28 09:18:55;;;;;;;10.52;8.82;;;563.50;2432.00;;;;;;5050498;28;20503;-77
2022/05/28 09:21:21;;;;;;;11.85;7.95;;;538.40;2406.40;;;;;;5046931;28;20049;-79
2022/05/28 09:24:11;;;;;;;16.23;13.77;;;538.00;2406.40;;;;;;5050378;28;20029;-79
2022/05/28 09:27:03;;;;;;;20.95;11.30;;;538.40;2406.40;;;;;;5076633;28;20044;-80
2022/05/28 09:29:53;;;;;;;15.30;12.43;;;537.90;2406.40;;;;;;5053060;28;20049;-81
2022/05/28 09:32:55;;;;;;;22.83;13.32;;;538.30;2406.40;;;;;;5054790;28;20032;-78
2022/05/28 09:35:48;;;;;;;18.77;13.50;;;538.20;2406.40;;;;;;5052694;28;20051;-78
2022/05/28 09:38:19;;;;;;;15.90;10.95;;;538.00;2406.40;;;;;;5067635;28;20021;-77
2022/05/28 09:41:16;;;;;;;18.10;14.68;;;538.00;2406.40;;;;;;5052864;28;20056;-78
2022/05/28 09:43:52;;;;;;;23.90;12.30;;;538.20;2406.40;;;;;;5082965;28;20062;-78
2022/05/28 09:46:36;;;;;;;25.55;19.58;;;537.80;2406.40;;;;;;5052898;28;20032;-77
2022/05/28 09:49:03;;;;;;;22.63;16.58;;;;;;;;;;5054382;28;20029;-77
2022/05/28 09:51:33;;;;;;;20.23;18.00;;;512.80;2380.80;;;;;;5053546;28;20049;-78
2022/05/28 09:54:16;;;;;;;17.88;15.98;;;537.60;2406.40;;;;;;5053733;28;20127;-77
2022/05/28 09:56:44;;;;;;;;;;;512.40;2380.80;;;;;;5054245;28;20043;-78
2022/05/28 09:59:35;;;;;;;25.55;22.75;;;512.40;2380.80;;;;;;5057068;28;19905;-78
2022/05/28 10:02:07;;;;;;;23.15;19.67;;;512.60;2380.80;;;;;;5056625;28;20067;-76
2022/05/28 10:04:49;;;;;;;21.23;17.08;;;512.10;2380.80;;;;;;5053584;28;20021;-77
2022/05/28 10:07:15;;;;;;;29.70;21.85;;;512.30;2380.80;;;;;;5051949;28;20032;-76
2022/05/28 10:09:50;;;;;;;22.92;17.95;;;512.40;2380.80;;;;;;5040884;28;20025;-79
2022/05/28 10:12:28;;;;;;;29.48;18.23;;;487.30;2380.80;;;;;;5053277;28;20031;-78
2022/05/28 10:15:04;;;;;;;22.75;17.92;;;487.20;2380.80;;;;;;5050252;28;20025;-79
2022/05/28 10:17:31;;;;;;;24.80;19.42;;;512.10;2380.80;;;;;;5052685;28;20115;-77
2022/05/28 10:19:59;;;;;;;27.20;19.25;;;487.10;2380.80;;;;;;5052626;28;20392;-78
2022/05/28 10:22:26;;;;;;;21.95;14.98;;;512.10;2380.80;;;;;;5052248;28;20205;-77
2022/05/28 10:24:58;;;;;;;26.88;15.85;;;512.00;2380.80;;;;;;5053907;28;20060;-76
2022/05/28 10:27:34;;;;;;;25.58;18.92;;;512.20;2380.80;;;;;;5052236;28;20031;-79
2022/05/28 10:30:08;;;;;;;23.08;15.52;;;512.10;2380.80;;;;;;5052101;28;20483;-79
2022/05/28 10:32:44;;;;;;;22.30;15.18;;;512.20;2380.80;;;;;;5052731;28;20116;-79
2022/05/28 10:35:21;;;;;;;18.83;12.07;;;512.20;2380.80;;;;;;5053706;28;20031;-76
2022/05/28 10:37:48;;;;;;;22.20;18.30;;;512.40;2380.80;;;;;;5052168;28;20436;-75
2022/05/28 10:40:24;;;;;;;21.42;16.95;;;512.00;2380.80;;;;;;5051966;28;20021;-78
2022/05/28 10:42:59;;;;;;;31.55;17.75;;;487.20;2380.80;;;;;;5052146;28;20029;-77
2022/05/28 10:45:33;;;;;;;21.02;14.88;;;487.30;2380.80;;;;;;5051444;28;20056;-79
2022/05/28 10:48:34;;;;;;;23.45;16.80;;;512.00;2380.80;;;;;;5052619;28;20029;-78
2022/05/28 10:51:13;;;;;;;32.22;24.95;;;512.10;2380.80;;;;;;5052153;28;20029;-77
2022/05/28 10:53:59;;;;;;;20.05;13.50;;;512.70;2380.80;;;;;;5052994;28;20093;-78
2022/05/28 10:57:03;;;;;;;18.35;12.93;;;512.30;2380.80;;;;;;5051584;28;20131;-78
2022/05/28 10:59:34;;;;;;;16.42;12.18;;;512.20;2380.80;;;;;;5066215;28;20117;-79
2022/05/28 11:02:41;;;;;;;23.52;15.02;;;512.00;2380.80;;;;;;5049495;28;20029;-79
2022/05/28 11:05:10;;;;;;;19.38;15.38;;;512.00;2380.80;;;;;;5030387;28;20048;-82
2022/05/28 11:07:59;;;;;;;20.38;14.50;;;487.20;2380.80;;;;;;5052208;28;20029;-77
2022/05/28 11:10:34;;;;;;;22.65;17.85;;;;;;;;;;5053187;28;20388;-77
2022/05/28 11:13:09;;;;;;;24.80;22.33;;;512.00;2380.80;;;;;;5053118;28;20021;-78
2022/05/28 11:15:41;;;;;;;21.48;18.50;;;512.00;2380.80;;;;;;5052680;28;20605;-79
2022/05/28 11:18:18;;;;;;;26.90;23.75;;;;;;;;;;5051984;28;20033;-77
2022/05/28 11:21:10;;;;;;;27.45;21.92;;;512.00;2380.80;;;;;;5052731;28;20507;-78
2022/05/28 11:24:08;;;;;;;23.77;19.77;;;512.20;2380.80;;;;;;5052854;28;20040;-77
2022/05/28 11:26:51;;;;;;;23.00;19.27;;;512.20;2380.80;;;;;;5061266;28;20040;-77
2022/05/28 11:29:26;;;;;;;12.82;10.23;;;512.30;2380.80;;;;;;5052499;28;20041;-78
2022/05/28 11:32:09;;;;;;;23.95;18.92;;;512.00;2380.80;;;;;;5051119;28;20087;-76
2022/05/28 11:34:44;;;;;;;22.42;15.82;;;512.40;2380.80;;;;;;5051977;28;20063;-75
2022/05/28 11:37:28;;;;;;;12.85;9.27;;;512.80;2380.80;;;;;;5050979;28;20162;-76
2022/05/28 11:40:01;;;;;;;12.43;6.88;;;512.40;2380.80;;;;;;5052235;28;20071;-76
2022/05/28 11:42:42;;;;;;;15.15;8.85;;;512.20;2380.80;;;;;;5050992;28;20027;-77
2022/05/28 11:45:27;;;;;;;16.33;10.35;;;512.30;2380.80;;;;;;5051031;28;20123;-76
2022/05/28 11:48:07;;;;;;;10.48;7.78;;;512.70;2380.80;;;;;;5052165;28;20029;-76
2022/05/28 11:53:42;;;;;;;15.20;7.97;;;512.50;2380.80;;;;;;5051911;28;20090;-77
2022/05/28 11:56:22;;;;;;;23.73;12.15;;;512.50;2380.80;;;;;;5051046;28;20091;-78
2022/05/28 11:58:56;;;;;;;10.90;7.82;;;512.80;2380.80;;;;;;5052165;28;20496;-77
2022/05/28 12:01:24;;;;;;;12.15;8.90;;;;;;;;;;5051150;28;20060;-77
2022/05/28 12:03:52;;;;;;;13.85;10.68;;;512.60;2380.80;;;;;;5050825;28;20365;-78
2022/05/28 12:06:34;;;;;;;17.40;8.75;;;512.50;2380.80;;;;;;5050956;28;20079;-78
2022/05/28 12:09:10;;;;;;;13.30;9.85;;;512.40;2380.80;;;;;;5051830;28;20396;-79
2022/05/28 12:12:11;;;;;;;7.18;5.53;;;512.10;2380.80;;;;;;5052300;28;20588;-79
2022/05/28 12:14:41;;;;;;;10.55;7.03;;;487.10;2380.80;;;;;;5048597;28;20124;-77
2022/05/28 12:17:19;;;;;;;12.32;7.82;;;486.70;2380.80;;;;;;5051663;28;20037;-79
2022/05/28 12:19:47;;;;;;;12.80;8.07;;;486.80;2380.80;;;;;;5051462;28;20089;-78
2022/05/28 12:22:28;;;;;;;8.70;6.82;;;486.70;2380.80;;;;;;5050482;28;20021;-78
2022/05/28 12:25:06;;;;;;;9.60;8.60;;;486.40;2380.80;;;;;;5051927;28;20064;-78
2022/05/28 12:27:55;;;;;;;8.27;6.47;;;461.70;2380.80;;;;;;5050325;28;20028;-77
2022/05/28 12:30:30;;;;;;;12.95;11.55;;;461.60;2380.80;;;;;;5048229;28;20079;-78
2022/05/28 12:32:57;;;;;;;15.55;9.00;;;461.60;2380.80;;;;;;5049958;28;20071;-77
2022/05/28 12:35:59;;;;;;;14.57;10.13;;;461.50;2380.80;;;;;;5051521;28;20025;-78
2022/05/28 12:38:48;;;;;;;11.40;10.05;;;461.50;2380.80;;;;;;5051358;28;20036;-79
2022/05/28 12:41:28;;;;;;;14.13;10.80;;;461.50;2380.80;;;;;;5045189;28;20037;-76
2022/05/28 12:44:21;;;;;;;19.15;15.77;;;461.30;2380.80;;;;;;5051255;28;20104;-77
2022/05/28 12:46:54;;;;;;;19.05;13.20;;;461.20;2380.80;;;;;;5043883;28;20037;-76
2022/05/28 12:49:28;;;;;;;20.35;15.48;;;461.40;2380.80;;;;;;5051269;28;20029;-76
2022/05/28 12:52:02;;;;;;;21.08;15.77;;;461.20;2380.80;;;;;;5051187;28;20052;-78
2022/05/28 12:54:34;;;;;;;27.95;24.98;;;461.30;2380.80;;;;;;5051179;28;20031;-78
2022/05/28 12:57:25;;;;;;;23.73;16.83;;;461.50;2380.80;;;;;;5051287;28;20120;-78
2022/05/28 13:00:08;;;;;;;26.63;19.40;;;461.40;2380.80;;;;;;5075929;28;20044;-77
2022/05/28 13:02:41;;;;;;;20.77;16.88;;;461.20;2380.80;;;;;;5050572;28;20104;-76
2022/05/28 13:05:11;;;;;;;20.15;15.48;;;461.00;2380.80;;;;;;5046511;28;20025;-77